Time;durP1;ratioP1;P1;durP2;ratioP2;P2;SDS_P1;SDS_P2;PMS_P1;PMS_P2;Temp;Humidity;BMP_temperature;BMP_pressure;BME280_temperature;BME280_humidity;BME280_pressure;Samples;Min_cycle;Max_cycle;Signal;HPM_P1;HPM_P2
2022/08/03 00:01:55;;;;;;;6.13;4.20;;;22.90;99.90;;;;;;5010286;28;20259;-64
2022/08/03 00:04:21;;;;;;;6.90;4.20;;;22.90;99.90;;;;;;5009917;28;20207;-64
2022/08/03 00:06:46;;;;;;;4.17;3.77;;;22.80;99.90;;;;;;5010072;28;20160;-64
2022/08/03 00:09:12;;;;;;;8.10;3.63;;;22.80;99.90;;;;;;5009522;28;20183;-64
2022/08/03 00:11:38;;;;;;;5.57;3.53;;;22.90;99.90;;;;;;5009915;28;20176;-63
2022/08/03 00:14:04;;;;;;;5.60;3.83;;;22.90;99.90;;;;;;5009950;28;20215;-63
2022/08/03 00:16:30;;;;;;;6.17;4.00;;;22.90;99.90;;;;;;5010262;28;20181;-64
2022/08/03 00:18:56;;;;;;;7.73;4.70;;;23.00;99.90;;;;;;5009542;28;20404;-64
2022/08/03 00:21:22;;;;;;;4.83;4.40;;;23.00;99.90;;;;;;5009609;28;20226;-63
2022/08/03 00:23:48;;;;;;;5.80;4.87;;;23.00;99.90;;;;;;5010016;28;20204;-63
2022/08/03 00:26:13;;;;;;;4.73;4.00;;;23.00;99.90;;;;;;5010090;28;20203;-63
2022/08/03 00:28:39;;;;;;;8.03;4.20;;;23.00;99.90;;;;;;5009196;28;20864;-63
2022/08/03 00:31:06;;;;;;;6.87;4.80;;;22.90;99.90;;;;;;5022220;28;20171;-63
2022/08/03 00:33:32;;;;;;;4.47;4.07;;;22.90;99.90;;;;;;5009786;28;20191;-63
2022/08/03 00:35:58;;;;;;;8.10;4.23;;;22.80;99.90;;;;;;5009692;28;20492;-62
2022/08/03 00:38:23;;;;;;;5.70;4.13;;;22.90;99.90;;;;;;5008476;28;20172;-64
2022/08/03 00:40:49;;;;;;;11.67;4.57;;;22.80;99.90;;;;;;5009990;28;20172;-64
2022/08/03 00:43:15;;;;;;;12.20;4.13;;;22.70;99.90;;;;;;4991882;28;20188;-65
2022/08/03 00:45:42;;;;;;;6.57;4.83;;;22.70;99.90;;;;;;5011972;28;20680;-63
2022/08/03 00:48:10;;;;;;;6.13;4.13;;;22.60;99.90;;;;;;5015785;28;20399;-66
2022/08/03 00:50:41;;;;;;;4.83;4.27;;;22.60;99.90;;;;;;5015907;28;20411;-64
2022/08/03 00:53:10;;;;;;;5.60;5.03;;;22.60;99.90;;;;;;5015983;28;20398;-62
2022/08/03 00:55:37;;;;;;;9.70;4.20;;;22.60;99.90;;;;;;5016405;28;20771;-63
2022/08/03 00:58:05;;;;;;;5.90;3.70;;;22.70;99.90;;;;;;5015817;28;20838;-64
2022/08/03 01:00:35;;;;;;;4.83;4.33;;;22.70;99.90;;;;;;5016045;28;20412;-64
2022/08/03 01:03:01;;;;;;;6.67;4.93;;;22.70;99.90;;;;;;5016071;28;20911;-64
2022/08/03 01:05:29;;;;;;;12.73;4.90;;;22.80;99.90;;;;;;5016732;28;20985;-64
2022/08/03 01:08:26;;;;;;;8.20;5.13;;;22.70;99.90;;;;;;5015270;28;20462;-64
2022/08/03 01:10:57;;;;;;;11.30;5.27;;;22.60;99.90;;;;;;5016286;28;20456;-64
2022/08/03 01:14:12;;;;;;;8.73;4.60;;;22.60;99.90;;;;;;5016319;28;20438;-64
2022/08/03 01:16:58;;;;;;;9.53;4.80;;;22.50;99.90;;;;;;4971413;28;20898;-64
2022/08/03 01:19:24;;;;;;;4.80;4.30;;;22.60;99.90;;;;;;4996078;28;20387;-63
2022/08/03 01:22:16;;;;;;;4.50;4.10;;;22.60;99.90;;;;;;4995765;28;20415;-63
2022/08/03 01:25:04;;;;;;;5.13;4.50;;;22.50;99.90;;;;;;4996436;28;20224;-64
2022/08/03 01:27:39;;;;;;;4.47;3.97;;;22.40;99.90;;;;;;4996705;28;20404;-63
2022/08/03 01:30:07;;;;;;;7.47;4.43;;;22.40;99.90;;;;;;5007457;28;21097;-65
2022/08/03 01:32:39;;;;;;;7.03;4.40;;;22.50;99.90;;;;;;5021927;28;20406;-65
2022/08/03 01:35:11;;;;;;;6.03;4.50;;;22.40;99.90;;;;;;5015660;28;20419;-63
2022/08/03 01:37:46;;;;;;;6.30;4.40;;;22.40;99.90;;;;;;5014997;28;20447;-63
2022/08/03 01:40:14;;;;;;;6.60;3.93;;;22.40;99.90;;;;;;5015517;28;21001;-63
2022/08/03 01:42:41;;;;;;;7.03;4.60;;;22.30;99.90;;;;;;5015719;28;21001;-62
2022/08/03 01:45:11;;;;;;;9.20;5.10;;;22.30;99.90;;;;;;5015725;28;20467;-62
2022/08/03 01:47:38;;;;;;;6.93;4.00;;;22.30;99.90;;;;;;5015223;28;20577;-63
2022/08/03 01:50:05;;;;;;;10.43;4.73;;;22.30;99.90;;;;;;4997765;28;20414;-63
2022/08/03 01:52:32;;;;;;;7.40;4.57;;;22.20;99.90;;;;;;5015674;28;20411;-63
2022/08/03 01:55:00;;;;;;;14.40;4.60;;;22.10;99.90;;;;;;5016032;28;20938;-63
2022/08/03 01:57:28;;;;;;;6.77;4.60;;;22.10;99.90;;;;;;5013296;28;20457;-62
2022/08/03 01:59:56;;;;;;;10.03;4.77;;;22.10;99.90;;;;;;5012418;28;20749;-63
2022/08/03 02:02:23;;;;;;;6.43;4.23;;;22.00;99.90;;;;;;5012546;28;20807;-63
2022/08/03 02:04:51;;;;;;;17.93;6.60;;;22.00;99.90;;;;;;5012251;28;20505;-63
2022/08/03 02:07:18;;;;;;;8.33;5.20;;;21.90;99.90;;;;;;5011622;28;20494;-64
2022/08/03 02:09:46;;;;;;;7.10;4.40;;;21.80;99.90;;;;;;5012431;28;20395;-63
2022/08/03 02:12:13;;;;;;;9.37;4.17;;;21.80;99.90;;;;;;5012395;28;20407;-63
2022/08/03 02:14:42;;;;;;;14.33;4.73;;;21.60;99.90;;;;;;5012061;28;20439;-64
2022/08/03 02:17:09;;;;;;;9.77;3.97;;;21.70;99.90;;;;;;5011861;28;20494;-64
2022/08/03 02:19:36;;;;;;;5.33;4.20;;;21.80;99.90;;;;;;5011576;28;20904;-63
2022/08/03 02:22:04;;;;;;;5.07;4.57;;;21.70;99.90;;;;;;5011879;28;20411;-62
2022/08/03 02:24:30;;;;;;;8.90;4.40;;;21.70;99.90;;;;;;5012096;28;20581;-63
2022/08/03 02:26:57;;;;;;;16.00;5.43;;;21.70;99.90;;;;;;5011792;28;20411;-63
2022/08/03 02:29:25;;;;;;;12.83;5.00;;;21.80;99.90;;;;;;5011527;28;20415;-62
2022/08/03 02:31:54;;;;;;;8.30;5.63;;;21.90;99.90;;;;;;5011921;28;20458;-61
2022/08/03 02:34:22;;;;;;;9.13;4.70;;;22.00;99.90;;;;;;5011793;28;20439;-61
2022/08/03 02:36:51;;;;;;;8.40;4.37;;;21.90;99.90;;;;;;5011365;28;20412;-63
2022/08/03 02:39:21;;;;;;;11.93;5.00;;;22.00;99.90;;;;;;5011081;28;20403;-61
2022/08/03 02:42:01;;;;;;;5.37;4.40;;;21.90;99.90;;;;;;5011590;28;20403;-61
2022/08/03 02:44:28;;;;;;;5.37;4.77;;;21.90;99.90;;;;;;5011775;28;20978;-62
2022/08/03 02:47:01;;;;;;;10.20;5.23;;;21.90;99.90;;;;;;5011541;28;20406;-63
2022/08/03 02:49:28;;;;;;;5.53;5.00;;;21.80;99.90;;;;;;5010905;28;20848;-62
2022/08/03 02:51:55;;;;;;;6.73;4.90;;;21.90;99.90;;;;;;5011268;28;20403;-60
2022/08/03 02:54:23;;;;;;;7.50;5.73;;;21.80;99.90;;;;;;5011437;28;20977;-62
2022/08/03 02:56:51;;;;;;;5.87;4.73;;;21.80;99.90;;;;;;5011728;28;20408;-61
2022/08/03 02:59:18;;;;;;;8.33;5.00;;;21.70;99.90;;;;;;5011365;28;20403;-62
2022/08/03 03:01:45;;;;;;;6.97;4.90;;;21.70;99.90;;;;;;4994361;28;20722;-62
2022/08/03 03:04:11;;;;;;;8.40;4.60;;;21.70;99.90;;;;;;5036211;22;20462;-69
2022/08/03 03:06:38;;;;;;;7.57;4.70;;;21.80;99.90;;;;;;5008641;28;20472;-68
2022/08/03 03:09:05;;;;;;;7.47;5.33;;;21.70;99.90;;;;;;5008987;28;20403;-68
2022/08/03 03:11:31;;;;;;;7.47;3.93;;;21.70;99.90;;;;;;5011353;28;20415;-69
2022/08/03 03:13:58;;;;;;;5.40;4.90;;;21.80;99.90;;;;;;5010913;28;20425;-66
2022/08/03 03:16:26;;;;;;;7.63;4.77;;;21.80;99.90;;;;;;4997785;28;20552;-66
2022/08/03 03:18:56;;;;;;;10.90;5.57;;;21.90;99.90;;;;;;4989360;28;20847;-66
2022/08/03 03:21:22;;;;;;;14.00;5.53;;;21.80;99.90;;;;;;4990995;28;20412;-66
2022/08/03 03:23:49;;;;;;;6.20;4.83;;;21.80;99.90;;;;;;4991034;28;20499;-66
2022/08/03 03:26:15;;;;;;;12.07;4.90;;;21.60;99.90;;;;;;4991438;28;20189;-66
2022/08/03 03:28:44;;;;;;;9.27;4.87;;;21.50;99.90;;;;;;4989466;28;20462;-68
2022/08/03 03:31:11;;;;;;;10.13;5.30;;;21.50;99.90;;;;;;5005434;28;20422;-68
2022/08/03 03:33:37;;;;;;;8.50;4.70;;;21.40;99.90;;;;;;5011858;28;20498;-66
2022/08/03 03:36:05;;;;;;;10.63;5.77;;;21.40;99.90;;;;;;5003204;28;20428;-66
2022/08/03 03:38:31;;;;;;;13.13;5.63;;;21.40;99.90;;;;;;4990902;28;20827;-67
2022/08/03 03:40:57;;;;;;;17.03;6.63;;;21.60;99.90;;;;;;4992209;28;20412;-69
2022/08/03 03:43:23;;;;;;;13.57;5.63;;;21.60;99.90;;;;;;4990838;28;20426;-70
2022/08/03 03:45:51;;;;;;;9.63;5.40;;;21.50;99.90;;;;;;4990652;28;20291;-68
2022/08/03 03:48:18;;;;;;;13.33;5.93;;;21.60;99.90;;;;;;4971787;28;20431;-68
2022/08/03 03:50:45;;;;;;;17.50;6.07;;;21.60;99.90;;;;;;4990756;28;20819;-67
2022/08/03 03:53:12;;;;;;;13.57;6.43;;;21.60;99.90;;;;;;4990285;28;20511;-68
2022/08/03 03:55:39;;;;;;;8.77;5.17;;;21.50;99.90;;;;;;4990795;28;20933;-68
2022/08/03 03:58:05;;;;;;;7.77;5.43;;;21.50;99.90;;;;;;4990205;28;20416;-67
2022/08/03 04:00:31;;;;;;;16.30;5.70;;;21.60;99.90;;;;;;4990429;28;20413;-68
2022/08/03 04:02:57;;;;;;;12.83;5.50;;;21.50;99.90;;;;;;4990705;28;20780;-67
2022/08/03 04:10:57;;;;;;;10.37;6.07;;;21.50;99.90;;;;;;4991147;28;20439;-67
2022/08/03 04:13:58;;;;;;;8.40;5.07;;;21.30;99.90;;;;;;4989755;28;20416;-67
2022/08/03 04:16:30;;;;;;;16.93;5.70;;;21.30;99.90;;;;;;4956809;28;20425;-67
2022/08/03 04:19:01;;;;;;;11.10;6.10;;;21.30;99.90;;;;;;4990357;28;20392;-66
2022/08/03 04:21:29;;;;;;;12.10;6.40;;;21.30;99.90;;;;;;4983822;28;20392;-66
2022/08/03 04:24:02;;;;;;;32.23;6.67;;;21.30;99.90;;;;;;4977634;28;20534;-67
2022/08/03 04:26:32;;;;;;;14.17;6.00;;;21.40;99.90;;;;;;4989306;28;20944;-67
2022/08/03 04:28:59;;;;;;;10.40;5.60;;;21.50;99.90;;;;;;4988057;28;21172;-68
2022/08/03 04:31:28;;;;;;;13.80;5.23;;;21.50;99.90;;;;;;4998501;28;20460;-67
2022/08/03 04:33:54;;;;;;;7.70;5.20;;;21.50;99.90;;;;;;4970676;28;20423;-66
2022/08/03 04:36:23;;;;;;;33.97;7.07;;;21.40;99.90;;;;;;4978907;28;20424;-66
2022/08/03 04:39:02;;;;;;;9.83;5.50;;;21.50;99.90;;;;;;4988213;28;20455;-67
2022/08/03 04:41:29;;;;;;;21.97;6.40;;;21.70;99.90;;;;;;4990335;28;20826;-66
2022/08/03 04:43:57;;;;;;;10.83;6.17;;;21.60;99.90;;;;;;4990151;28;20448;-66
2022/08/03 04:46:26;;;;;;;11.67;4.93;;;21.80;99.90;;;;;;4990023;28;20432;-66
2022/08/03 04:48:53;;;;;;;25.43;6.00;;;21.90;99.90;;;;;;4989844;28;20400;-66
2022/08/03 04:51:19;;;;;;;9.83;5.20;;;22.00;99.90;;;;;;4990035;28;20800;-68
2022/08/03 04:53:44;;;;;;;15.67;6.33;;;22.30;99.90;;;;;;4989076;28;20425;-71
2022/08/03 04:56:10;;;;;;;9.90;5.97;;;22.70;99.90;;;;;;4987691;28;20193;-66
2022/08/03 04:58:36;;;;;;;21.10;6.03;;;23.10;99.90;;;;;;4987236;28;20180;-68
2022/08/03 05:01:02;;;;;;;11.37;5.73;;;23.30;99.90;;;;;;4987877;28;20621;-67
2022/08/03 05:03:27;;;;;;;27.90;7.43;;;23.60;99.90;;;;;;4987323;28;20601;-68
2022/08/03 05:05:54;;;;;;;15.47;5.40;;;23.60;99.90;;;;;;4987478;28;20783;-66
2022/08/03 05:08:20;;;;;;;5.90;5.00;;;23.80;99.90;;;;;;4986870;28;20390;-67
2022/08/03 05:10:46;;;;;;;10.63;5.00;;;23.80;99.90;;;;;;4987642;28;21174;-68
2022/08/03 05:13:13;;;;;;;12.17;5.53;;;24.00;99.90;;;;;;4986735;28;20196;-70
2022/08/03 05:15:39;;;;;;;5.17;4.63;;;24.10;99.90;;;;;;4987554;28;20467;-70
2022/08/03 05:18:05;;;;;;;12.77;5.00;;;24.20;99.90;;;;;;4981123;28;20927;-68
2022/08/03 05:20:31;;;;;;;18.57;6.30;;;24.30;99.90;;;;;;4967797;28;20413;-68
2022/08/03 05:22:59;;;;;;;17.87;6.07;;;24.40;99.90;;;;;;4982901;28;20169;-67
2022/08/03 05:25:28;;;;;;;25.53;6.57;;;24.50;99.90;;;;;;4987135;28;20463;-68
2022/08/03 05:27:54;;;;;;;6.13;5.53;;;24.40;99.90;;;;;;4987556;28;20405;-72
2022/08/03 05:30:20;;;;;;;14.00;6.00;;;24.50;99.90;;;;;;4976798;28;20411;-70
2022/08/03 05:32:45;;;;;;;8.80;5.60;;;24.70;99.90;;;;;;4993566;28;20161;-68
2022/08/03 05:35:11;;;;;;;12.00;5.17;;;24.50;99.90;;;;;;4990312;28;20299;-68
2022/08/03 05:37:37;;;;;;;11.83;5.23;;;24.60;99.90;;;;;;4989449;28;20599;-69
2022/08/03 05:40:04;;;;;;;8.40;5.80;;;24.50;99.90;;;;;;4991559;28;20177;-69
2022/08/03 05:42:29;;;;;;;10.20;6.23;;;24.30;99.90;;;;;;4973589;28;20181;-69
2022/08/03 05:44:55;;;;;;;18.23;6.70;;;24.70;99.90;;;;;;4990747;28;20613;-70
2022/08/03 05:47:21;;;;;;;23.83;6.30;;;25.00;99.90;;;;;;4990489;28;20162;-70
2022/08/03 05:49:47;;;;;;;8.90;5.83;;;25.00;99.90;;;;;;4991003;28;20304;-68
2022/08/03 05:52:13;;;;;;;11.27;4.93;;;25.30;99.90;;;;;;4990653;28;20505;-69
2022/08/03 05:54:38;;;;;;;13.23;5.20;;;25.10;99.90;;;;;;4990446;28;20250;-69
2022/08/03 05:57:04;;;;;;;6.70;5.27;;;25.00;99.90;;;;;;4991046;28;20169;-69
2022/08/03 05:59:30;;;;;;;9.30;5.47;;;24.70;99.90;;;;;;4992319;28;20191;-68
2022/08/03 06:01:56;;;;;;;4.93;4.53;;;24.60;99.90;;;;;;4990059;28;20165;-69
2022/08/03 06:04:21;;;;;;;6.17;5.00;;;24.40;99.90;;;;;;4997078;28;20214;-70
2022/08/03 06:06:49;;;;;;;8.40;5.20;;;24.50;99.90;;;;;;4998538;28;20220;-69
2022/08/03 06:09:16;;;;;;;5.80;5.20;;;24.60;99.90;;;;;;5001876;28;20172;-69
2022/08/03 06:11:41;;;;;;;5.30;4.70;;;24.10;99.90;;;;;;5006277;28;20400;-68
2022/08/03 06:14:11;;;;;;;6.10;4.90;;;24.10;99.90;;;;;;5000269;28;20444;-68
2022/08/03 06:16:37;;;;;;;6.03;5.40;;;24.40;99.90;;;;;;5004057;28;20248;-69
2022/08/03 06:19:03;;;;;;;17.13;6.00;;;24.50;99.90;;;;;;5013351;28;20419;-68
2022/08/03 06:21:29;;;;;;;7.00;4.80;;;25.20;99.90;;;;;;4994085;28;20192;-68
2022/08/03 06:23:54;;;;;;;8.43;5.73;;;24.90;99.90;;;;;;4990486;28;20204;-69
2022/08/03 06:26:20;;;;;;;11.80;4.80;;;24.60;99.90;;;;;;4990651;28;20455;-67
2022/08/03 06:28:46;;;;;;;5.87;5.27;;;25.10;99.90;;;;;;4992818;28;20211;-66
2022/08/03 06:31:12;;;;;;;8.60;6.17;;;25.10;99.90;;;;;;5007466;28;20168;-68
2022/08/03 06:33:37;;;;;;;6.93;5.50;;;25.40;99.90;;;;;;4994439;28;20177;-66
2022/08/03 06:36:03;;;;;;;6.13;4.90;;;25.60;99.90;;;;;;4991094;28;20188;-65
2022/08/03 06:38:29;;;;;;;5.73;5.17;;;25.30;99.90;;;;;;4992614;28;20346;-66
2022/08/03 06:40:55;;;;;;;6.00;5.13;;;25.10;99.90;;;;;;4993527;28;20451;-66
2022/08/03 06:43:21;;;;;;;5.23;4.80;;;25.10;99.90;;;;;;4992483;28;20180;-66
2022/08/03 06:45:46;;;;;;;19.80;5.40;;;25.30;99.90;;;;;;4996210;28;20203;-66
2022/08/03 06:48:12;;;;;;;9.27;5.57;;;25.70;99.90;;;;;;5003270;28;20179;-68
2022/08/03 06:50:40;;;;;;;6.90;4.90;;;25.60;99.90;;;;;;4999148;28;20180;-69
2022/08/03 06:53:07;;;;;;;12.87;4.17;;;25.80;99.90;;;;;;4982146;28;20296;-66
2022/08/03 06:55:33;;;;;;;5.20;4.60;;;26.10;99.90;;;;;;4981659;28;20471;-67
2022/08/03 06:57:59;;;;;;;10.20;4.70;;;26.40;99.90;;;;;;5000713;28;20411;-68
2022/08/03 07:00:26;;;;;;;9.33;3.90;;;26.00;99.90;;;;;;4999521;28;20253;-66
2022/08/03 07:02:53;;;;;;;7.27;4.63;;;26.30;99.90;;;;;;4999356;28;20331;-69
2022/08/03 07:05:19;;;;;;;5.50;4.67;;;26.70;99.90;;;;;;4997117;28;20686;-69
2022/08/03 07:07:45;;;;;;;5.73;4.47;;;26.30;99.90;;;;;;4995387;28;20497;-67
2022/08/03 07:10:10;;;;;;;9.10;4.90;;;26.10;99.90;;;;;;4995550;28;20416;-68
2022/08/03 07:12:37;;;;;;;8.90;4.67;;;26.50;99.90;;;;;;4995249;28;20519;-68
2022/08/03 07:15:04;;;;;;;5.30;4.80;;;26.40;99.90;;;;;;5002319;28;20204;-70
2022/08/03 07:17:31;;;;;;;18.60;5.73;;;26.20;99.90;;;;;;4992243;28;20434;-69
2022/08/03 07:19:58;;;;;;;26.83;6.00;;;26.20;99.90;;;;;;4991172;28;20419;-70
2022/08/03 07:22:24;;;;;;;5.97;3.67;;;26.90;99.90;;;;;;5000128;28;20419;-68
2022/08/03 07:24:49;;;;;;;4.77;4.03;;;27.40;99.90;;;;;;4980003;28;20470;-69
2022/08/03 07:27:15;;;;;;;13.70;4.80;;;26.70;99.90;;;;;;4991333;28;20165;-70
2022/08/03 07:29:41;;;;;;;38.60;6.10;;;27.00;99.90;;;;;;4991172;28;20260;-70
2022/08/03 07:32:07;;;;;;;12.50;5.03;;;27.70;99.90;;;;;;4994068;28;20172;-69
2022/08/03 07:34:33;;;;;;;5.20;4.30;;;28.20;99.90;;;;;;4991385;28;20258;-70
2022/08/03 07:36:59;;;;;;;13.40;4.10;;;28.10;99.90;;;;;;4989957;28;20172;-69
2022/08/03 07:39:24;;;;;;;5.10;4.33;;;27.90;99.90;;;;;;4990941;28;20211;-70
2022/08/03 07:41:50;;;;;;;7.30;3.37;;;28.10;99.90;;;;;;4991512;28;20267;-69
2022/08/03 07:44:17;;;;;;;5.33;3.90;;;27.60;99.90;;;;;;4991109;28;20192;-68
2022/08/03 07:46:43;;;;;;;10.53;3.90;;;27.40;99.90;;;;;;4974162;28;20172;-67
2022/08/03 07:49:09;;;;;;;13.00;4.47;;;28.00;99.90;;;;;;4990784;28;20469;-68
2022/08/03 07:51:34;;;;;;;6.40;4.07;;;28.10;99.90;;;;;;4991003;28;20172;-68
2022/08/03 07:54:00;;;;;;;7.03;4.17;;;27.80;99.90;;;;;;4991363;28;20184;-69
2022/08/03 07:56:27;;;;;;;16.97;4.33;;;27.90;99.90;;;;;;4990835;28;20212;-67
2022/08/03 07:58:53;;;;;;;21.20;4.23;;;27.90;99.90;;;;;;4990610;28;20925;-68
2022/08/03 08:01:19;;;;;;;40.43;6.90;;;28.20;99.90;;;;;;4974232;28;20416;-67
2022/08/03 08:03:45;;;;;;;9.87;4.60;;;28.40;99.90;;;;;;4991899;28;20446;-68
2022/08/03 08:06:11;;;;;;;5.20;3.30;;;28.60;99.90;;;;;;4990932;28;20214;-67
2022/08/03 08:08:38;;;;;;;4.93;3.37;;;28.50;99.90;;;;;;4990464;28;20400;-68
2022/08/03 08:11:04;;;;;;;15.93;4.87;;;28.20;99.90;;;;;;4991527;28;20187;-67
2022/08/03 08:13:30;;;;;;;19.27;5.03;;;28.30;99.90;;;;;;4990928;28;20400;-67
2022/08/03 08:15:55;;;;;;;6.67;3.37;;;28.90;99.90;;;;;;4991090;28;20196;-68
2022/08/03 08:18:22;;;;;;;6.50;2.97;;;29.10;99.90;;;;;;4990061;28;20215;-67
2022/08/03 08:20:49;;;;;;;5.10;2.40;;;28.40;99.90;;;;;;4990818;28;20252;-67
2022/08/03 08:23:21;;;;;;;18.70;3.80;;;28.20;99.90;;;;;;5007954;28;20437;-69
2022/08/03 08:25:47;;;;;;;4.07;2.37;;;28.70;99.90;;;;;;5011229;28;20498;-67
2022/08/03 08:28:13;;;;;;;5.23;2.70;;;28.40;99.90;;;;;;5009633;28;20782;-69
2022/08/03 08:30:39;;;;;;;5.83;2.80;;;28.30;99.90;;;;;;5010224;28;20489;-69
2022/08/03 08:33:05;;;;;;;3.57;2.70;;;28.80;99.90;;;;;;5010246;28;20529;-69
2022/08/03 08:35:30;;;;;;;3.00;2.60;;;28.30;99.90;;;;;;5006218;28;20196;-68
2022/08/03 08:37:59;;;;;;;3.30;2.37;;;27.90;99.90;;;;;;4989533;28;20172;-67
2022/08/03 08:40:27;;;;;;;6.00;2.70;;;28.00;99.90;;;;;;4990434;28;20168;-68
2022/08/03 08:42:52;;;;;;;4.00;2.53;;;28.50;99.90;;;;;;4990549;28;20895;-68
2022/08/03 08:45:19;;;;;;;4.50;2.40;;;28.70;99.90;;;;;;4990352;28;20459;-67
2022/08/03 08:47:46;;;;;;;12.70;3.30;;;28.40;99.90;;;;;;4989988;28;20165;-68
2022/08/03 08:50:15;;;;;;;7.27;3.33;;;28.70;99.90;;;;;;4972411;28;20905;-69
2022/08/03 08:52:44;;;;;;;20.10;4.10;;;29.00;99.90;;;;;;4989851;28;20410;-68
2022/08/03 08:55:15;;;;;;;4.00;2.80;;;29.30;99.90;;;;;;4990089;28;20431;-68
2022/08/03 08:57:51;;;;;;;5.67;2.90;;;28.90;99.90;;;;;;4990040;28;20514;-68
2022/08/03 09:00:18;;;;;;;7.57;2.67;;;28.30;99.90;;;;;;4972647;28;20414;-68
2022/08/03 09:02:45;;;;;;;13.57;3.20;;;28.30;99.90;;;;;;4990593;28;20416;-68
2022/08/03 09:07:48;;;;;;;10.53;3.07;;;28.70;99.90;;;;;;4985400;28;20915;-65
2022/08/03 09:10:18;;;;;;;3.00;2.27;;;28.90;99.90;;;;;;4986039;28;20871;-65
2022/08/03 09:12:51;;;;;;;4.10;3.17;;;28.70;99.90;;;;;;4994046;28;20408;-64
2022/08/03 09:15:31;;;;;;;2.90;2.60;;;28.50;99.90;;;;;;4994077;28;20415;-65
2022/08/03 09:17:59;;;;;;;24.67;4.33;;;28.20;99.90;;;;;;4993880;28;20407;-66
2022/08/03 09:20:29;;;;;;;10.00;3.47;;;28.80;99.90;;;;;;4989473;28;20427;-66
2022/08/03 09:23:09;;;;;;;3.40;2.70;;;28.90;99.90;;;;;;4988584;28;20419;-66
2022/08/03 09:25:37;;;;;;;28.90;5.00;;;28.60;99.90;;;;;;4993729;28;20558;-66
2022/08/03 09:28:11;;;;;;;22.43;4.27;;;28.40;99.90;;;;;;4993224;28;20408;-66
2022/08/03 09:30:40;;;;;;;4.23;2.87;;;28.90;99.90;;;;;;4994065;28;20400;-66
2022/08/03 09:33:11;;;;;;;27.47;5.97;;;29.30;99.90;;;;;;4994062;28;20414;-66
2022/08/03 09:35:55;;;;;;;6.00;2.50;;;29.60;99.90;;;;;;4993446;28;20430;-66
2022/08/03 09:38:23;;;;;;;18.83;4.13;;;30.00;99.90;;;;;;4991682;28;20415;-66
2022/08/03 09:40:49;;;;;;;9.50;2.53;;;29.80;99.90;;;;;;4993534;28;20765;-65
2022/08/03 09:43:16;;;;;;;6.70;2.57;;;29.50;99.90;;;;;;4993433;28;20446;-66
2022/08/03 09:45:43;;;;;;;4.50;2.60;;;29.60;99.90;;;;;;4975778;28;20589;-62
2022/08/03 09:48:28;;;;;;;3.20;2.20;;;29.30;99.90;;;;;;4992706;28;20411;-65
2022/08/03 09:50:58;;;;;;;21.93;4.30;;;29.00;99.90;;;;;;4996885;28;20511;-65
2022/08/03 09:53:25;;;;;;;15.67;3.20;;;29.00;99.90;;;;;;4996167;28;20391;-66
2022/08/03 09:56:01;;;;;;;4.83;2.63;;;29.20;99.90;;;;;;4995423;28;20755;-66
2022/08/03 09:58:29;;;;;;;10.73;2.70;;;29.30;99.90;;;;;;4993954;28;20748;-66
2022/08/03 10:01:03;;;;;;;13.90;3.90;;;29.40;99.90;;;;;;4978020;28;20856;-67
2022/08/03 10:03:31;;;;;;;6.70;2.50;;;29.50;99.90;;;;;;4995645;28;20493;-66
2022/08/03 10:05:58;;;;;;;2.13;1.93;;;29.30;98.50;;;;;;4994089;28;20859;-65
2022/08/03 10:08:24;;;;;;;6.00;3.93;;;29.60;98.20;;;;;;4992529;28;20450;-67
2022/08/03 10:10:55;;;;;;;6.43;2.20;;;29.80;98.40;;;;;;4992713;28;20454;-66
2022/08/03 10:13:22;;;;;;;2.27;2.07;;;30.00;97.40;;;;;;4993092;28;20403;-67
2022/08/03 10:15:48;;;;;;;4.73;2.20;;;29.50;92.50;;;;;;4992743;28;20518;-66
2022/08/03 10:18:14;;;;;;;6.77;2.87;;;29.30;91.30;;;;;;4991771;28;20968;-66
2022/08/03 10:20:48;;;;;;;7.47;2.13;;;29.20;90.70;;;;;;4992522;28;20446;-66
2022/08/03 10:23:16;;;;;;;36.40;5.17;;;29.30;86.70;;;;;;4992299;28;20176;-66
2022/08/03 10:25:46;;;;;;;8.47;2.30;;;29.70;83.90;;;;;;4992764;28;20490;-66
2022/08/03 10:28:15;;;;;;;6.83;2.00;;;29.90;78.50;;;;;;4988464;28;20432;-65
2022/08/03 10:30:46;;;;;;;3.60;1.93;;;30.00;74.40;;;;;;4992129;28;20627;-65
2022/08/03 10:33:19;;;;;;;2.73;2.10;;;29.90;68.50;;;;;;4992464;28;20750;-65
2022/08/03 10:35:50;;;;;;;12.33;2.70;;;29.90;66.80;;;;;;4992305;28;21006;-65
2022/08/03 10:38:29;;;;;;;5.63;2.37;;;29.60;63.00;;;;;;4991451;28;20982;-66
2022/08/03 10:40:55;;;;;;;4.97;2.40;;;29.70;79.20;;;;;;4992057;28;20762;-64
2022/08/03 10:43:27;;;;;;;3.70;2.10;;;29.70;53.30;;;;;;4992661;28;20415;-64
2022/08/03 10:45:54;;;;;;;1.90;1.70;;;29.60;49.10;;;;;;4973408;28;20452;-65
2022/08/03 10:48:21;;;;;;;25.47;3.77;;;29.30;47.50;;;;;;4971921;28;20436;-66
2022/08/03 10:50:49;;;;;;;3.00;2.07;;;29.60;48.10;;;;;;4972677;28;20416;-65
2022/08/03 10:53:14;;;;;;;2.73;1.80;;;29.80;46.10;;;;;;4988839;28;20416;-65
2022/08/03 10:58:51;;;;;;;8.23;2.07;;;29.60;42.30;;;;;;4994119;28;20659;-66
2022/08/03 11:01:18;;;;;;;4.70;1.90;;;29.60;40.40;;;;;;4993649;28;20494;-66
2022/08/03 11:03:53;;;;;;;9.97;2.10;;;29.80;40.50;;;;;;4975349;28;20480;-66
2022/08/03 11:06:23;;;;;;;11.10;2.07;;;29.90;37.00;;;;;;4971995;28;20506;-67
2022/08/03 11:09:08;;;;;;;12.00;2.43;;;29.70;34.70;;;;;;4954774;28;20424;-66
2022/08/03 11:11:38;;;;;;;5.80;2.30;;;29.90;33.60;;;;;;4988106;28;21017;-67
2022/08/03 11:14:06;;;;;;;8.03;2.37;;;30.00;31.00;;;;;;4991541;28;20499;-67
2022/08/03 11:16:41;;;;;;;4.00;1.70;;;30.30;30.00;;;;;;4991446;28;20467;-66
2022/08/03 11:19:09;;;;;;;12.23;2.10;;;30.10;26.70;;;;;;4990718;28;20400;-67
2022/08/03 11:21:50;;;;;;;9.90;1.90;;;29.80;26.30;;;;;;4990609;28;20939;-66
2022/08/03 11:24:53;;;;;;;6.53;1.90;;;30.00;25.40;;;;;;4991603;28;20553;-66
2022/08/03 11:27:25;;;;;;;6.03;1.70;;;29.90;23.30;;;;;;4959551;28;20478;-67
2022/08/03 11:30:06;;;;;;;11.40;1.87;;;29.70;22.20;;;;;;4990250;28;21237;-67
2022/08/03 11:32:55;;;;;;;5.13;2.40;;;29.90;22.40;;;;;;4991344;28;20407;-66
2022/08/03 11:35:28;;;;;;;6.03;2.00;;;29.80;21.90;;;;;;4990402;28;20505;-69
2022/08/03 11:37:56;;;;;;;6.67;2.37;;;29.90;21.60;;;;;;4990329;28;20406;-67
2022/08/03 11:40:34;;;;;;;7.77;1.93;;;30.10;22.10;;;;;;4990999;28;20422;-67
2022/08/03 11:43:00;;;;;;;3.60;1.60;;;30.40;20.40;;;;;;4987875;28;20494;-68
2022/08/03 11:45:26;;;;;;;17.40;2.70;;;30.50;19.20;;;;;;4991146;28;20816;-66
2022/08/03 11:47:54;;;;;;;7.67;2.57;;;30.30;18.20;;;;;;4991502;28;20781;-66
2022/08/03 11:50:21;;;;;;;18.07;3.67;;;30.10;15.30;;;;;;4990866;28;20786;-68
2022/08/03 11:52:48;;;;;;;11.53;2.70;;;30.00;15.50;;;;;;4991370;28;20443;-68
2022/08/03 11:55:19;;;;;;;5.00;1.93;;;30.20;15.90;;;;;;4992061;28;20430;-67
2022/08/03 11:57:46;;;;;;;5.03;2.00;;;30.30;14.90;;;;;;4991175;28;20427;-68
2022/08/03 12:00:22;;;;;;;8.70;2.03;;;30.40;14.20;;;;;;4993595;28;20407;-67
2022/08/03 12:03:07;;;;;;;2.33;1.47;;;30.20;13.00;;;;;;4994954;28;20407;-65
2022/08/03 12:05:40;;;;;;;2.53;1.80;;;30.20;12.80;;;;;;4993471;28;20952;-66
2022/08/03 12:08:09;;;;;;;4.43;2.20;;;30.20;12.00;;;;;;4991349;28;20758;-65
2022/08/03 12:10:36;;;;;;;30.90;4.07;;;30.30;11.20;;;;;;4998078;28;20414;-66
2022/08/03 12:13:07;;;;;;;7.80;2.30;;;30.50;11.20;;;;;;4998386;28;20438;-66
2022/08/03 12:15:34;;;;;;;6.77;2.33;;;30.70;9.90;;;;;;4992966;28;20400;-67
2022/08/03 12:18:11;;;;;;;27.37;4.10;;;30.60;9.90;;;;;;4991539;28;20509;-67
2022/08/03 12:20:37;;;;;;;3.90;1.80;;;30.40;9.10;;;;;;4992443;28;20427;-66
2022/08/03 12:23:04;;;;;;;5.40;2.00;;;30.30;8.90;;;;;;4986519;28;20446;-65
2022/08/03 12:25:32;;;;;;;9.80;3.20;;;30.30;9.20;;;;;;4988753;28;20200;-66
2022/08/03 12:28:15;;;;;;;8.97;2.13;;;30.40;9.90;;;;;;4990639;28;20439;-66
2022/08/03 12:30:41;;;;;;;4.60;1.93;;;30.30;8.70;;;;;;4990700;28;21036;-66
2022/08/03 12:33:20;;;;;;;4.17;2.23;;;30.30;8.90;;;;;;4990041;28;20414;-66
2022/08/03 12:35:48;;;;;;;19.50;3.23;;;30.40;9.40;;;;;;4984542;28;20457;-67
2022/08/03 12:38:21;;;;;;;15.70;4.20;;;30.40;9.50;;;;;;4988819;28;20418;-67
2022/08/03 12:41:15;;;;;;;2.67;2.00;;;30.20;6.80;;;;;;4991156;28;20420;-66
2022/08/03 12:43:50;;;;;;;3.77;1.90;;;30.00;6.40;;;;;;4988863;28;20423;-67
2022/08/03 12:46:18;;;;;;;4.07;2.00;;;29.90;6.70;;;;;;4971866;28;20795;-66
2022/08/03 12:49:03;;;;;;;6.57;2.10;;;30.00;7.60;;;;;;4970106;28;20408;-67
2022/08/03 12:51:31;;;;;;;9.40;2.43;;;30.20;17.20;;;;;;4983083;28;20410;-67
2022/08/03 12:53:57;;;;;;;3.73;1.83;;;30.00;7.30;;;;;;4990203;28;20454;-67
2022/08/03 12:56:23;;;;;;;3.80;1.90;;;30.10;6.90;;;;;;4989942;28;20427;-66
2022/08/03 12:58:49;;;;;;;2.70;1.80;;;30.20;6.90;;;;;;4989447;28;20474;-68
2022/08/03 13:01:16;;;;;;;2.20;1.80;;;30.50;7.60;;;;;;4990316;28;20486;-68
2022/08/03 13:03:44;;;;;;;4.10;2.10;;;30.40;6.90;;;;;;4990120;28;20184;-68